Time;durP1;ratioP1;P1;durP2;ratioP2;P2;SDS_P1;SDS_P2;PMS_P1;PMS_P2;Temp;Humidity;BMP_temperature;BMP_pressure;BME280_temperature;BME280_humidity;BME280_pressure;Samples;Min_cycle;Max_cycle;Signal;HPM_P1;HPM_P2
2021/01/23 00:01:19;;;;;;;9.07;7.70;;;7.00;1.00;;;;;;5119940;27;20182;-58
2021/01/23 00:03:44;;;;;;;12.57;8.23;;;7.00;1.00;;;;;;5134188;27;20182;-56
2021/01/23 00:06:10;;;;;;;9.43;8.43;;;7.10;1.00;;;;;;5120970;27;20576;-57
2021/01/23 00:08:35;;;;;;;9.57;8.60;;;7.20;1.00;;;;;;5132756;27;20182;-58
2021/01/23 00:11:01;;;;;;;10.10;8.73;;;7.10;1.00;;;;;;5130052;27;20177;-57
2021/01/23 00:13:27;;;;;;;10.43;9.33;;;7.20;1.00;;;;;;5093146;28;20263;-57
2021/01/23 00:15:52;;;;;;;11.70;9.73;;;7.30;1.00;;;;;;5111698;27;20246;-56
2021/01/23 00:18:18;;;;;;;10.43;9.10;;;7.40;1.00;;;;;;5116069;27;20235;-57
2021/01/23 00:20:44;;;;;;;11.03;9.83;;;7.40;1.00;;;;;;5113837;28;20265;-57
2021/01/23 00:23:09;;;;;;;12.10;9.83;;;7.50;1.00;;;;;;5113472;27;20268;-55
2021/01/23 00:25:35;;;;;;;11.27;10.00;;;7.50;1.00;;;;;;5133767;27;20647;-56
2021/01/23 00:28:01;;;;;;;14.30;11.20;;;7.50;1.00;;;;;;5107637;27;20187;-56
2021/01/23 00:30:26;;;;;;;13.30;11.43;;;7.50;1.00;;;;;;5093002;28;20193;-56
2021/01/23 00:32:52;;;;;;;14.43;11.63;;;7.60;1.00;;;;;;5115583;27;20486;-57
2021/01/23 00:35:18;;;;;;;12.30;10.97;;;7.60;1.00;;;;;;5133982;27;20210;-56
2021/01/23 00:37:47;;;;;;;13.40;11.37;;;7.50;1.00;;;;;;5133979;27;20177;-56
2021/01/23 00:40:13;;;;;;;14.33;10.70;;;7.40;1.00;;;;;;5129404;27;20221;-57
2021/01/23 00:42:38;;;;;;;11.10;8.77;;;7.40;1.00;;;;;;5121927;27;20962;-56
2021/01/23 00:45:04;;;;;;;12.00;9.50;;;7.40;1.00;;;;;;5123465;27;20177;-56
2021/01/23 00:47:30;;;;;;;13.23;10.33;;;7.50;1.00;;;;;;5127066;27;20177;-59
2021/01/23 00:49:56;;;;;;;10.60;9.13;;;7.40;1.00;;;;;;5116644;27;20439;-57
2021/01/23 00:52:21;;;;;;;12.40;10.27;;;7.40;1.00;;;;;;5127277;27;20265;-57
2021/01/23 00:54:47;;;;;;;10.03;8.93;;;7.30;1.00;;;;;;5121136;27;20225;-56
2021/01/23 00:57:12;;;;;;;10.97;9.07;;;7.20;1.00;;;;;;5128743;27;20260;-56
2021/01/23 00:59:38;;;;;;;9.27;7.57;;;7.20;1.00;;;;;;5122380;27;20211;-56
2021/01/23 01:02:04;;;;;;;8.70;7.70;;;7.10;1.00;;;;;;5126400;27;20184;-56
2021/01/23 01:04:29;;;;;;;9.20;7.57;;;7.10;1.00;;;;;;5113596;27;20178;-56
2021/01/23 01:06:55;;;;;;;9.20;7.83;;;7.10;1.00;;;;;;5123087;27;20184;-57
2021/01/23 01:09:20;;;;;;;8.30;6.77;;;7.10;1.00;;;;;;5131857;27;20264;-57
2021/01/23 01:11:46;;;;;;;8.30;6.37;;;7.20;1.00;;;;;;5125968;27;20169;-56
2021/01/23 01:14:12;;;;;;;7.80;6.50;;;7.10;1.00;;;;;;5117922;27;20192;-57
2021/01/23 01:16:38;;;;;;;8.70;7.27;;;7.00;1.00;;;;;;5129804;28;20494;-56
2021/01/23 01:19:03;;;;;;;8.20;6.43;;;7.00;1.00;;;;;;5115141;28;20234;-56
2021/01/23 01:21:29;;;;;;;8.50;7.53;;;7.10;1.00;;;;;;5112822;28;20178;-56
2021/01/23 01:23:54;;;;;;;9.23;6.07;;;7.10;1.00;;;;;;5132147;28;20255;-55
2021/01/23 01:26:20;;;;;;;8.40;6.80;;;7.20;1.00;;;;;;5103179;28;20190;-57
2021/01/23 01:28:46;;;;;;;7.40;6.47;;;7.30;1.00;;;;;;5113641;28;20638;-57
2021/01/23 01:31:11;;;;;;;8.00;7.20;;;7.40;1.00;;;;;;5096796;28;20225;-57
2021/01/23 01:33:37;;;;;;;6.40;5.77;;;7.40;1.00;;;;;;5092260;28;20628;-56
2021/01/23 01:36:03;;;;;;;7.73;7.00;;;7.40;1.00;;;;;;5117835;28;20205;-56
2021/01/23 01:38:28;;;;;;;9.00;8.10;;;7.40;1.00;;;;;;5125008;28;20635;-56
2021/01/23 01:40:54;;;;;;;7.03;6.33;;;7.40;1.00;;;;;;5132958;27;20816;-56
2021/01/23 01:43:20;;;;;;;10.87;6.90;;;7.50;1.00;;;;;;5095116;28;20261;-55
2021/01/23 01:45:45;;;;;;;7.30;6.30;;;7.40;1.00;;;;;;5117092;28;20194;-56
2021/01/23 01:48:11;;;;;;;10.37;6.50;;;7.40;1.00;;;;;;5105222;28;20593;-57
2021/01/23 01:50:38;;;;;;;8.73;6.50;;;7.50;1.00;;;;;;5092174;28;20535;-56
2021/01/23 01:53:05;;;;;;;7.60;6.17;;;7.50;1.00;;;;;;5102256;28;20430;-55
2021/01/23 01:55:33;;;;;;;7.17;6.13;;;7.50;1.00;;;;;;5119664;27;20459;-56
2021/01/23 01:58:00;;;;;;;7.57;6.67;;;7.40;1.00;;;;;;5112229;28;20431;-55
2021/01/23 02:00:26;;;;;;;7.63;6.63;;;7.50;1.00;;;;;;5111375;28;20450;-57
2021/01/23 02:03:11;;;;;;;9.67;7.53;;;7.50;1.00;;;;;;5099276;28;20520;-56
2021/01/23 02:05:54;;;;;;;7.97;6.60;;;7.40;1.00;;;;;;5112201;28;20439;-57
2021/01/23 02:08:39;;;;;;;9.40;7.20;;;7.40;1.00;;;;;;5112277;28;20586;-56
2021/01/23 02:11:24;;;;;;;8.03;6.23;;;7.30;1.00;;;;;;5105853;28;20432;-56
2021/01/23 02:14:00;;;;;;;8.50;6.73;;;7.40;1.00;;;;;;5092699;28;20473;-56
2021/01/23 02:16:33;;;;;;;6.90;6.20;;;7.40;1.00;;;;;;5092108;28;20460;-57
2021/01/23 02:19:28;;;;;;;9.40;6.70;;;7.40;1.00;;;;;;5108454;28;20434;-55
2021/01/23 02:22:17;;;;;;;7.87;6.17;;;7.20;1.00;;;;;;5121737;28;20466;-55
2021/01/23 02:24:45;;;;;;;6.80;6.10;;;7.20;1.00;;;;;;5110896;28;20471;-56
2021/01/23 02:27:23;;;;;;;6.97;5.53;;;7.20;1.00;;;;;;5118749;27;20458;-56
2021/01/23 02:30:10;;;;;;;7.50;4.97;;;7.10;1.00;;;;;;5119853;27;20447;-56
2021/01/23 02:32:38;;;;;;;5.50;5.00;;;7.20;1.00;;;;;;5121659;27;20477;-57
2021/01/23 02:35:07;;;;;;;7.03;5.50;;;7.30;1.00;;;;;;5112342;27;20939;-56
2021/01/23 02:37:35;;;;;;;5.50;5.00;;;7.20;1.00;;;;;;5116281;27;20432;-57
2021/01/23 02:40:01;;;;;;;6.60;5.10;;;7.20;1.00;;;;;;5115588;28;20427;-58
2021/01/23 02:42:27;;;;;;;6.70;5.77;;;7.30;1.00;;;;;;5130818;27;20442;-57
2021/01/23 02:44:52;;;;;;;6.13;5.53;;;7.20;1.00;;;;;;5121800;27;20440;-56
2021/01/23 02:47:18;;;;;;;7.50;5.87;;;7.40;1.00;;;;;;5113719;27;20271;-57
2021/01/23 02:49:44;;;;;;;7.53;5.90;;;7.30;1.00;;;;;;5130640;27;20182;-57
2021/01/23 02:53:00;;;;;;;6.80;5.57;;;7.30;1.00;;;;;;5126696;27;20200;-57
2021/01/23 02:55:30;;;;;;;7.43;5.70;;;7.30;1.00;;;;;;5109859;27;20209;-57
2021/01/23 02:58:00;;;;;;;6.33;5.73;;;7.20;1.00;;;;;;5135977;27;20565;-55
2021/01/23 03:00:26;;;;;;;6.93;6.03;;;7.20;1.00;;;;;;5123786;27;20461;-55
2021/01/23 03:02:55;;;;;;;6.73;5.93;;;7.20;1.00;;;;;;5113779;28;20424;-56
2021/01/23 03:05:29;;;;;;;7.97;7.13;;;7.30;1.00;;;;;;5122376;27;20440;-55
2021/01/23 03:07:55;;;;;;;8.87;6.00;;;7.30;1.00;;;;;;5132227;27;20595;-55
2021/01/23 03:10:38;;;;;;;6.97;6.07;;;7.20;1.00;;;;;;5129711;27;20502;-58
2021/01/23 03:13:04;;;;;;;10.90;6.80;;;7.10;1.00;;;;;;5118025;27;20447;-56
2021/01/23 03:15:30;;;;;;;7.53;6.70;;;7.00;1.00;;;;;;5113812;28;20817;-57
2021/01/23 03:17:56;;;;;;;5.60;5.03;;;7.20;1.00;;;;;;5120466;27;20443;-57
2021/01/23 03:20:22;;;;;;;7.50;5.77;;;7.20;1.00;;;;;;5121958;27;20657;-57
2021/01/23 03:22:47;;;;;;;6.67;5.70;;;7.20;1.00;;;;;;5114836;28;20428;-56
2021/01/23 03:25:13;;;;;;;8.53;5.50;;;7.10;1.00;;;;;;5114871;28;20264;-58
2021/01/23 03:27:38;;;;;;;6.33;5.53;;;7.20;1.00;;;;;;5114758;28;20194;-56
2021/01/23 03:30:05;;;;;;;6.83;5.63;;;7.10;1.00;;;;;;5103425;28;20582;-57
2021/01/23 03:32:31;;;;;;;9.13;6.67;;;7.10;1.00;;;;;;5094530;28;20234;-56
2021/01/23 03:34:56;;;;;;;6.00;5.40;;;7.00;1.00;;;;;;5094217;28;20515;-57
2021/01/23 03:37:24;;;;;;;7.13;5.57;;;7.20;1.00;;;;;;5098103;27;20252;-56
2021/01/23 03:39:50;;;;;;;7.90;5.50;;;7.10;1.00;;;;;;5134972;27;20178;-57
2021/01/23 03:42:16;;;;;;;6.67;4.70;;;7.10;1.00;;;;;;5135262;27;20423;-57
2021/01/23 03:44:42;;;;;;;5.67;5.03;;;7.00;1.00;;;;;;5122129;27;20449;-55
2021/01/23 03:47:07;;;;;;;6.17;5.07;;;7.10;1.00;;;;;;5122696;27;20197;-56
2021/01/23 03:49:33;;;;;;;6.40;4.50;;;7.00;1.00;;;;;;5115166;27;20242;-55
2021/01/23 03:51:58;;;;;;;6.47;4.40;;;7.00;1.00;;;;;;5122177;27;20197;-57
2021/01/23 03:54:24;;;;;;;5.10;4.30;;;7.00;1.00;;;;;;5118224;27;20224;-56
2021/01/23 03:56:49;;;;;;;6.67;4.90;;;7.00;1.00;;;;;;5131749;27;20317;-56
2021/01/23 03:59:15;;;;;;;5.70;5.03;;;7.10;1.00;;;;;;5122819;27;20187;-56
2021/01/23 04:01:41;;;;;;;8.17;6.10;;;7.00;1.00;;;;;;5124232;27;20186;-56
2021/01/23 04:04:06;;;;;;;6.00;5.13;;;7.10;1.00;;;;;;5126407;27;20261;-58
2021/01/23 04:06:32;;;;;;;5.90;4.97;;;7.10;1.00;;;;;;5116382;27;20178;-57
2021/01/23 04:08:57;;;;;;;7.00;5.10;;;7.20;1.00;;;;;;5112850;27;20219;-57
2021/01/23 04:11:23;;;;;;;6.57;4.90;;;7.10;1.00;;;;;;5125834;27;20194;-57
2021/01/23 04:13:48;;;;;;;7.00;5.10;;;7.00;1.00;;;;;;5128055;27;20578;-56
2021/01/23 04:16:14;;;;;;;5.53;4.77;;;7.10;1.00;;;;;;5117194;27;20224;-57
2021/01/23 04:18:40;;;;;;;4.87;4.30;;;7.10;1.00;;;;;;5128188;27;20181;-59
2021/01/23 04:21:05;;;;;;;6.27;5.30;;;6.90;1.00;;;;;;5128401;27;20565;-57
2021/01/23 04:23:33;;;;;;;6.20;5.23;;;6.90;1.00;;;;;;5111804;28;20182;-58
2021/01/23 04:25:58;;;;;;;5.77;4.57;;;7.00;1.00;;;;;;5124006;27;20182;-56
2021/01/23 04:28:24;;;;;;;8.03;6.40;;;6.90;1.00;;;;;;5123902;27;20431;-58
2021/01/23 04:30:49;;;;;;;6.63;4.73;;;7.00;1.00;;;;;;5116911;27;20181;-57
2021/01/23 04:33:15;;;;;;;7.13;5.07;;;6.90;1.00;;;;;;5123912;27;20221;-56
2021/01/23 04:35:40;;;;;;;6.77;5.07;;;6.80;1.00;;;;;;5119926;27;20285;-57
2021/01/23 04:38:06;;;;;;;7.17;5.17;;;6.90;1.00;;;;;;5117940;27;20203;-57
2021/01/23 04:40:32;;;;;;;5.13;4.70;;;6.90;1.00;;;;;;5114260;27;20194;-56
2021/01/23 04:42:57;;;;;;;6.23;4.37;;;6.90;1.00;;;;;;5111941;28;20262;-56
2021/01/23 04:45:23;;;;;;;5.80;4.63;;;6.80;1.00;;;;;;5113340;28;20542;-57
2021/01/23 04:47:54;;;;;;;6.97;5.20;;;6.70;1.00;;;;;;5112807;28;20185;-56
2021/01/23 04:50:20;;;;;;;5.63;4.57;;;6.70;1.00;;;;;;5113352;28;20182;-56
2021/01/23 04:52:46;;;;;;;7.20;5.30;;;6.60;1.00;;;;;;5111449;28;20933;-57
2021/01/23 04:55:12;;;;;;;5.10;4.60;;;6.70;1.00;;;;;;5114947;27;20216;-57
2021/01/23 04:57:38;;;;;;;8.50;5.00;;;6.70;1.00;;;;;;5122689;27;20178;-56
2021/01/23 05:00:07;;;;;;;5.53;4.57;;;6.90;1.00;;;;;;5114672;27;20190;-58
2021/01/23 05:02:33;;;;;;;5.97;4.40;;;6.80;1.00;;;;;;5117689;27;20445;-57
2021/01/23 05:05:00;;;;;;;7.13;4.50;;;6.80;1.00;;;;;;5115692;27;20523;-59
2021/01/23 05:07:30;;;;;;;6.00;4.70;;;6.40;1.00;;;;;;5109191;28;20267;-57
2021/01/23 05:10:14;;;;;;;4.70;4.20;;;6.60;1.00;;;;;;5122688;27;20443;-57
2021/01/23 05:12:47;;;;;;;7.20;5.07;;;6.70;1.00;;;;;;5122575;28;20435;-56
2021/01/23 05:15:23;;;;;;;4.83;4.33;;;6.80;1.00;;;;;;5116050;28;20447;-57
2021/01/23 05:18:21;;;;;;;5.87;4.97;;;6.60;1.00;;;;;;5124982;27;20441;-57
2021/01/23 05:20:47;;;;;;;4.97;3.73;;;6.60;1.00;;;;;;5071235;28;20455;-56
2021/01/23 05:23:14;;;;;;;6.83;4.40;;;6.50;16.20;;;;;;5117965;28;20586;-56
2021/01/23 05:25:41;;;;;;;4.20;3.43;;;6.50;23.70;;;;;;5125172;28;20443;-57
2021/01/23 05:28:09;;;;;;;5.50;3.80;;;6.50;27.40;;;;;;5118545;28;20522;-56
2021/01/23 05:30:44;;;;;;;5.60;4.80;;;6.30;25.80;;;;;;5118444;28;20455;-57
2021/01/23 05:33:13;;;;;;;7.07;5.00;;;6.20;37.50;;;;;;5113648;28;20463;-56
2021/01/23 05:35:39;;;;;;;6.90;5.10;;;6.20;38.20;;;;;;5112094;28;20463;-55
2021/01/23 05:38:38;;;;;;;5.57;4.60;;;6.10;56.40;;;;;;5118207;28;20435;-57
2021/01/23 05:41:03;;;;;;;7.40;6.60;;;6.10;58.40;;;;;;5086651;28;20543;-56
2021/01/23 05:43:30;;;;;;;6.00;5.37;;;5.90;69.90;;;;;;5114653;28;20840;-55
2021/01/23 05:45:57;;;;;;;7.00;5.63;;;5.90;94.50;;;;;;5132529;28;20267;-57
2021/01/23 05:48:22;;;;;;;6.30;5.23;;;5.90;99.90;;;;;;5114704;27;20774;-56
2021/01/23 05:50:50;;;;;;;5.87;5.20;;;5.90;99.90;;;;;;5119184;28;20495;-55
2021/01/23 05:53:16;;;;;;;5.47;4.60;;;5.80;99.90;;;;;;5125896;28;20213;-56
2021/01/23 05:55:42;;;;;;;5.90;5.13;;;5.80;99.90;;;;;;5121154;27;20490;-56
2021/01/23 05:58:08;;;;;;;6.67;6.07;;;5.70;99.90;;;;;;5131883;28;20185;-55
2021/01/23 06:00:35;;;;;;;7.60;5.30;;;5.80;99.90;;;;;;5120822;27;21744;-55
2021/01/23 06:03:01;;;;;;;5.23;4.40;;;5.90;99.90;;;;;;5107153;27;20452;-55
2021/01/23 06:05:27;;;;;;;6.00;5.40;;;5.90;99.90;;;;;;5095846;28;20453;-57
2021/01/23 06:07:52;;;;;;;6.20;5.07;;;5.80;99.90;;;;;;5128473;27;20639;-56
2021/01/23 06:10:23;;;;;;;5.00;4.47;;;5.70;99.90;;;;;;5126277;27;20435;-58
2021/01/23 06:12:50;;;;;;;5.83;4.80;;;5.80;99.90;;;;;;5116003;28;20179;-58
2021/01/23 06:15:35;;;;;;;5.00;3.70;;;5.90;99.90;;;;;;5123129;27;20889;-56
2021/01/23 06:18:26;;;;;;;5.23;4.50;;;5.80;99.90;;;;;;5134816;27;20931;-55
2021/01/23 06:20:56;;;;;;;4.43;4.03;;;5.70;99.90;;;;;;5123831;27;20433;-55
2021/01/23 06:23:42;;;;;;;4.10;3.70;;;5.60;99.90;;;;;;5100534;28;20568;-56
2021/01/23 06:26:08;;;;;;;4.10;3.73;;;5.70;99.90;;;;;;5129514;27;20435;-58
2021/01/23 06:28:39;;;;;;;4.93;4.53;;;5.60;99.90;;;;;;5136579;27;20950;-55
2021/01/23 06:31:23;;;;;;;7.20;6.20;;;5.40;99.90;;;;;;5111063;27;20183;-55
2021/01/23 06:33:52;;;;;;;5.47;3.80;;;5.40;99.90;;;;;;5119912;27;20789;-56
2021/01/23 06:36:19;;;;;;;12.20;8.83;;;5.20;99.90;;;;;;5118949;27;20486;-57
2021/01/23 06:39:07;;;;;;;3.73;3.43;;;5.00;99.90;;;;;;5133701;27;20442;-55
2021/01/23 06:41:35;;;;;;;3.43;3.00;;;4.90;99.90;;;;;;5120684;27;20471;-57
2021/01/23 06:44:07;;;;;;;3.60;3.30;;;4.90;99.90;;;;;;5127345;27;20933;-56
2021/01/23 06:46:33;;;;;;;3.53;3.23;;;4.90;99.90;;;;;;5123310;27;20440;-55
2021/01/23 06:49:12;;;;;;;4.07;3.77;;;4.90;99.90;;;;;;5117501;27;20501;-54
2021/01/23 06:51:39;;;;;;;5.00;3.53;;;4.90;99.90;;;;;;5113542;27;20986;-54
2021/01/23 06:54:21;;;;;;;3.80;3.23;;;4.80;99.90;;;;;;5125612;27;20450;-55
2021/01/23 06:56:52;;;;;;;6.43;3.90;;;4.60;99.90;;;;;;5121031;27;20461;-56
2021/01/23 06:59:30;;;;;;;4.10;3.50;;;4.50;99.90;;;;;;5124168;27;20447;-56
2021/01/23 07:02:03;;;;;;;4.53;3.90;;;4.40;99.90;;;;;;5132666;27;20433;-56
2021/01/23 07:04:50;;;;;;;3.97;3.67;;;4.30;99.90;;;;;;5116190;27;20540;-57
2021/01/23 07:07:17;;;;;;;5.67;4.93;;;4.40;99.90;;;;;;5119599;27;20446;-57
2021/01/23 07:09:50;;;;;;;4.80;4.30;;;4.40;99.90;;;;;;5118737;27;20496;-56
2021/01/23 07:12:37;;;;;;;4.27;3.97;;;4.20;99.90;;;;;;5118471;27;20832;-56
2021/01/23 07:15:06;;;;;;;6.23;4.47;;;4.20;99.90;;;;;;5124144;27;20887;-56
2021/01/23 07:17:40;;;;;;;4.33;3.50;;;4.20;99.90;;;;;;5117109;27;20785;-55
2021/01/23 07:20:07;;;;;;;5.57;4.63;;;4.10;99.90;;;;;;5123578;27;20431;-55
2021/01/23 07:22:33;;;;;;;5.57;4.20;;;4.10;99.90;;;;;;5122474;27;20469;-56
2021/01/23 07:24:59;;;;;;;5.00;3.87;;;4.10;99.90;;;;;;5125188;27;20443;-56
2021/01/23 07:27:25;;;;;;;5.10;4.43;;;3.90;99.90;;;;;;5116937;27;20439;-56
2021/01/23 07:29:51;;;;;;;5.20;4.00;;;3.70;99.90;;;;;;5120370;27;20445;-55
2021/01/23 07:32:17;;;;;;;5.50;4.90;;;3.70;99.90;;;;;;5122608;27;20474;-56
2021/01/23 07:34:59;;;;;;;4.90;4.20;;;3.70;99.90;;;;;;5125775;27;20181;-56
2021/01/23 07:37:51;;;;;;;5.90;4.67;;;3.60;99.90;;;;;;5119455;27;20249;-57
2021/01/23 07:40:21;;;;;;;4.40;3.57;;;3.60;99.90;;;;;;5114411;27;20523;-56
2021/01/23 07:42:48;;;;;;;4.80;4.30;;;3.60;99.90;;;;;;5119081;27;20461;-57
2021/01/23 07:45:16;;;;;;;5.93;4.40;;;3.60;99.90;;;;;;5117851;27;20443;-56
2021/01/23 07:47:42;;;;;;;4.80;4.30;;;3.60;99.90;;;;;;5125795;27;20441;-57
2021/01/23 07:50:11;;;;;;;4.50;4.10;;;3.60;99.90;;;;;;5122371;27;20449;-56
2021/01/23 07:52:39;;;;;;;6.83;5.20;;;3.70;99.90;;;;;;5122798;27;20423;-56
2021/01/23 07:55:06;;;;;;;4.60;3.80;;;3.80;99.90;;;;;;5121066;27;20466;-56
2021/01/23 07:57:31;;;;;;;7.10;5.60;;;3.70;99.90;;;;;;5124010;27;20437;-55
2021/01/23 07:59:57;;;;;;;6.77;4.87;;;3.80;99.90;;;;;;5126390;27;20442;-56
2021/01/23 08:02:23;;;;;;;6.67;5.33;;;3.80;99.90;;;;;;5117912;27;20220;-57
2021/01/23 08:04:51;;;;;;;5.90;4.80;;;3.70;99.90;;;;;;5117853;27;20586;-56
2021/01/23 08:07:29;;;;;;;5.53;5.03;;;3.70;99.90;;;;;;5116801;27;20431;-56
2021/01/23 08:10:13;;;;;;;5.90;4.80;;;3.70;99.90;;;;;;5112576;28;20535;-58
2021/01/23 08:12:42;;;;;;;5.67;5.03;;;3.70;99.90;;;;;;5109962;28;20442;-57
2021/01/23 08:15:09;;;;;;;5.93;5.33;;;3.60;99.90;;;;;;5112244;27;20463;-57
2021/01/23 08:17:47;;;;;;;6.37;5.67;;;3.60;99.90;;;;;;5112015;28;20428;-56
2021/01/23 08:20:17;;;;;;;6.97;6.10;;;3.70;99.90;;;;;;5113850;27;20437;-57
2021/01/23 08:23:07;;;;;;;8.00;6.23;;;3.70;99.90;;;;;;5111673;28;20930;-55
2021/01/23 08:25:34;;;;;;;8.00;5.30;;;3.70;99.90;;;;;;5114364;27;20443;-57
2021/01/23 08:28:00;;;;;;;6.40;5.70;;;3.70;99.90;;;;;;5112269;28;20434;-57
2021/01/23 08:30:27;;;;;;;6.90;5.77;;;3.80;99.90;;;;;;5111690;28;20462;-58
2021/01/23 08:32:54;;;;;;;9.57;6.90;;;3.80;99.90;;;;;;5113907;27;20489;-57
2021/01/23 08:35:21;;;;;;;6.97;5.70;;;3.80;99.90;;;;;;5115765;27;20458;-57
2021/01/23 08:37:47;;;;;;;8.00;5.63;;;3.90;99.90;;;;;;5116918;27;20990;-58
2021/01/23 08:40:18;;;;;;;8.70;5.97;;;3.80;99.90;;;;;;5122976;27;20437;-57
2021/01/23 08:42:43;;;;;;;7.93;5.77;;;3.80;99.90;;;;;;5118936;27;20479;-56
2021/01/23 08:45:09;;;;;;;6.77;5.87;;;3.80;99.90;;;;;;5128591;27;20435;-56
2021/01/23 08:47:35;;;;;;;8.57;6.77;;;3.80;99.90;;;;;;5121817;27;20181;-56
2021/01/23 08:50:01;;;;;;;8.27;6.63;;;3.70;99.90;;;;;;5102850;27;20507;-56
2021/01/23 08:52:26;;;;;;;7.67;6.37;;;3.70;99.90;;;;;;5128082;27;20188;-55
2021/01/23 08:54:52;;;;;;;8.30;6.40;;;3.80;99.90;;;;;;5127653;27;20179;-55
2021/01/23 08:57:17;;;;;;;9.63;7.97;;;3.90;99.90;;;;;;5115940;27;20203;-55
2021/01/23 08:59:43;;;;;;;8.47;7.10;;;3.80;99.90;;;;;;5115162;27;20199;-57
2021/01/23 09:02:10;;;;;;;8.53;7.03;;;3.80;99.90;;;;;;5117242;27;20219;-56
2021/01/23 09:04:37;;;;;;;9.47;7.40;;;3.90;99.90;;;;;;5116041;27;20257;-55
2021/01/23 09:07:03;;;;;;;9.40;8.03;;;3.80;99.90;;;;;;5124305;27;20947;-54
2021/01/23 09:09:29;;;;;;;9.47;7.53;;;3.80;99.90;;;;;;5124573;27;20833;-55
2021/01/23 09:11:54;;;;;;;9.53;7.20;;;3.80;99.90;;;;;;5116544;28;20451;-54
2021/01/23 09:14:20;;;;;;;9.87;7.70;;;3.80;99.90;;;;;;5115689;28;20212;-54
2021/01/23 09:16:46;;;;;;;9.00;7.20;;;3.90;99.90;;;;;;5123613;27;20207;-55
2021/01/23 09:19:12;;;;;;;12.10;7.60;;;3.70;99.90;;;;;;5129392;27;20188;-54
2021/01/23 09:21:39;;;;;;;11.90;8.07;;;3.70;99.90;;;;;;5119424;27;20204;-55
2021/01/23 09:24:07;;;;;;;10.60;7.00;;;3.70;99.90;;;;;;5118725;28;20438;-54
2021/01/23 09:26:33;;;;;;;9.40;7.00;;;3.80;99.90;;;;;;5119096;28;20436;-55
2021/01/23 09:28:58;;;;;;;10.03;7.80;;;3.50;99.90;;;;;;5124530;28;20517;-55
2021/01/23 09:31:24;;;;;;;10.23;7.87;;;3.80;99.90;;;;;;5128940;28;20559;-54
2021/01/23 09:33:50;;;;;;;10.10;7.70;;;3.90;99.90;;;;;;5117115;28;20184;-56
2021/01/23 09:36:16;;;;;;;10.47;7.57;;;3.90;99.90;;;;;;5125635;27;20203;-54
2021/01/23 09:38:42;;;;;;;12.17;9.03;;;3.60;99.90;;;;;;5117368;27;20771;-55
2021/01/23 09:41:09;;;;;;;11.27;8.10;;;3.40;99.90;;;;;;5121868;27;20449;-55
2021/01/23 09:43:35;;;;;;;14.30;9.03;;;3.40;99.90;;;;;;5121221;27;20196;-56
2021/01/23 09:46:01;;;;;;;11.33;8.20;;;3.60;99.90;;;;;;5122736;27;20946;-55
2021/01/23 09:48:27;;;;;;;11.70;7.70;;;3.50;99.90;;;;;;5123578;27;20842;-55
2021/01/23 09:50:53;;;;;;;12.83;8.43;;;3.30;99.90;;;;;;5125965;27;20180;-55
2021/01/23 09:53:18;;;;;;;9.60;6.67;;;3.30;99.90;;;;;;5125831;27;20572;-56
2021/01/23 09:55:44;;;;;;;10.30;7.03;;;3.40;99.90;;;;;;5124288;27;20464;-54
2021/01/23 09:58:10;;;;;;;9.13;7.63;;;3.40;99.90;;;;;;5126459;27;20217;-54
2021/01/23 10:00:36;;;;;;;8.30;7.00;;;3.40;99.90;;;;;;5125355;27;20202;-54
2021/01/23 10:03:01;;;;;;;9.53;6.50;;;3.40;99.90;;;;;;5120330;27;20232;-54
2021/01/23 10:05:27;;;;;;;8.50;6.63;;;3.30;99.90;;;;;;5127444;27;20186;-54
2021/01/23 10:07:53;;;;;;;8.27;6.87;;;3.30;99.90;;;;;;5128803;27;20181;-54
2021/01/23 10:10:18;;;;;;;8.53;6.47;;;3.40;99.90;;;;;;5131798;27;20188;-54
2021/01/23 10:12:44;;;;;;;8.80;6.50;;;3.50;99.90;;;;;;5119771;27;20194;-54
2021/01/23 10:15:10;;;;;;;9.27;7.00;;;3.50;99.90;;;;;;5131824;27;20832;-55
2021/01/23 10:17:35;;;;;;;9.10;6.70;;;3.40;99.90;;;;;;5123853;27;20186;-53
2021/01/23 10:20:02;;;;;;;9.83;7.07;;;3.50;99.90;;;;;;5122783;27;20229;-53
2021/01/23 10:22:27;;;;;;;10.20;6.67;;;3.40;99.90;;;;;;5125336;27;20191;-54
2021/01/23 10:24:53;;;;;;;7.70;6.50;;;3.50;99.90;;;;;;5122799;27;20515;-55
2021/01/23 10:27:19;;;;;;;8.90;6.67;;;3.30;99.90;;;;;;5126469;27;20619;-54
2021/01/23 10:29:44;;;;;;;7.93;6.57;;;3.30;99.90;;;;;;5121732;27;20216;-53
2021/01/23 10:32:10;;;;;;;5.80;5.20;;;3.40;99.90;;;;;;5125095;27;20218;-54
2021/01/23 10:34:35;;;;;;;7.73;6.43;;;3.50;99.90;;;;;;5127223;27;20175;-54
2021/01/23 10:37:02;;;;;;;6.57;5.97;;;3.40;99.90;;;;;;5131853;27;20211;-55
2021/01/23 10:39:27;;;;;;;7.37;6.23;;;3.50;99.90;;;;;;5126988;27;20172;-54
2021/01/23 10:41:53;;;;;;;9.00;6.80;;;3.40;99.90;;;;;;5118154;27;20857;-53
2021/01/23 10:44:19;;;;;;;6.57;5.83;;;3.50;99.90;;;;;;5122049;27;21589;-54
2021/01/23 10:46:44;;;;;;;8.70;6.50;;;3.40;99.90;;;;;;5123423;27;20203;-55
2021/01/23 10:49:10;;;;;;;6.57;5.57;;;3.50;99.90;;;;;;5130897;27;20436;-56
2021/01/23 10:51:36;;;;;;;6.83;6.13;;;3.40;99.90;;;;;;5125756;27;20190;-54
2021/01/23 10:54:02;;;;;;;6.43;5.63;;;3.40;99.90;;;;;;5126821;27;20188;-55
2021/01/23 10:56:28;;;;;;;7.07;6.37;;;3.40;99.90;;;;;;5118207;27;20244;-54
2021/01/23 10:59:00;;;;;;;7.93;6.17;;;3.30;99.90;;;;;;5120609;27;20727;-55
2021/01/23 11:01:35;;;;;;;6.47;5.77;;;3.30;99.90;;;;;;5124237;27;20512;-53
2021/01/23 11:04:01;;;;;;;6.07;5.50;;;3.30;99.90;;;;;;5123889;27;20440;-54
2021/01/23 11:06:26;;;;;;;7.30;5.60;;;3.30;99.90;;;;;;5120844;27;20456;-54
2021/01/23 11:08:52;;;;;;;6.10;5.30;;;3.20;99.90;;;;;;5119449;27;20536;-54
2021/01/23 11:11:18;;;;;;;6.03;5.40;;;3.30;99.90;;;;;;5124064;27;20271;-56
2021/01/23 11:13:43;;;;;;;5.53;4.77;;;3.20;99.90;;;;;;5126743;27;20611;-53
2021/01/23 11:16:10;;;;;;;6.47;5.80;;;3.20;99.90;;;;;;5122225;27;20653;-54
2021/01/23 11:18:36;;;;;;;6.17;4.97;;;3.10;99.90;;;;;;5118447;27;20539;-54
2021/01/23 11:21:03;;;;;;;6.10;4.37;;;3.20;99.90;;;;;;5120864;27;20428;-54
2021/01/23 11:23:29;;;;;;;6.63;6.03;;;3.20;99.90;;;;;;5121690;27;20433;-54
2021/01/23 11:25:54;;;;;;;5.23;4.73;;;3.20;99.90;;;;;;5123591;27;20938;-54
2021/01/23 11:28:20;;;;;;;4.67;4.23;;;3.30;99.90;;;;;;5124734;27;20259;-55
2021/01/23 11:30:46;;;;;;;3.87;3.50;;;3.40;99.90;;;;;;5127287;27;20187;-52
2021/01/23 11:33:12;;;;;;;3.83;3.43;;;3.40;99.90;;;;;;5128191;27;20738;-54
2021/01/23 11:35:38;;;;;;;4.93;4.43;;;3.50;99.90;;;;;;5126884;27;20456;-56
2021/01/23 11:38:05;;;;;;;4.57;4.17;;;3.50;99.90;;;;;;5125377;27;20184;-56
2021/01/23 11:40:31;;;;;;;4.73;3.87;;;3.40;99.90;;;;;;5128848;27;20449;-53
2021/01/23 11:42:56;;;;;;;3.50;3.10;;;3.50;99.90;;;;;;5122630;27;20432;-54
2021/01/23 11:45:22;;;;;;;3.50;3.20;;;3.50;99.90;;;;;;5123104;27;20186;-55
2021/01/23 11:47:48;;;;;;;3.67;3.37;;;3.60;99.90;;;;;;5123826;27;20181;-55
2021/01/23 11:50:14;;;;;;;5.17;3.90;;;3.60;99.90;;;;;;5112910;27;20218;-55
2021/01/23 11:52:40;;;;;;;3.70;3.40;;;3.60;99.90;;;;;;5119663;27;20450;-55
2021/01/23 11:55:06;;;;;;;5.07;4.57;;;3.70;99.90;;;;;;5114813;27;20813;-54
2021/01/23 11:57:33;;;;;;;4.00;3.60;;;3.70;99.90;;;;;;5120443;27;20259;-54
2021/01/23 11:59:58;;;;;;;4.70;4.27;;;3.60;99.90;;;;;;5118781;27;20441;-55
2021/01/23 12:02:24;;;;;;;4.80;4.20;;;3.80;99.90;;;;;;5120047;27;20962;-53
2021/01/23 12:04:50;;;;;;;5.07;4.63;;;3.90;99.90;;;;;;5125112;27;20202;-55
2021/01/23 12:07:16;;;;;;;5.17;4.67;;;3.80;99.90;;;;;;5122968;27;20173;-54
2021/01/23 12:09:45;;;;;;;5.27;4.73;;;3.70;99.90;;;;;;5128446;27;20467;-55
2021/01/23 12:12:11;;;;;;;6.00;5.20;;;3.60;99.90;;;;;;5125167;27;20467;-54
2021/01/23 12:14:37;;;;;;;6.47;5.20;;;3.70;99.90;;;;;;5127719;27;20461;-55
2021/01/23 12:17:02;;;;;;;5.93;4.90;;;3.80;99.90;;;;;;5116706;27;20596;-55
2021/01/23 12:19:28;;;;;;;6.30;5.33;;;3.90;99.90;;;;;;5116903;27;20441;-55
2021/01/23 12:21:54;;;;;;;7.83;5.23;;;4.00;99.90;;;;;;5119732;27;20216;-55
2021/01/23 12:24:20;;;;;;;6.33;5.27;;;4.00;99.90;;;;;;5121540;27;20188;-55
2021/01/23 12:26:46;;;;;;;5.60;5.00;;;4.00;99.90;;;;;;5126633;27;20175;-56
2021/01/23 12:29:11;;;;;;;5.63;5.13;;;4.00;99.90;;;;;;5125207;27;20179;-56
2021/01/23 12:31:37;;;;;;;5.20;4.70;;;4.00;99.90;;;;;;5118966;27;20215;-54
2021/01/23 12:34:03;;;;;;;5.10;4.47;;;4.10;99.90;;;;;;5121634;27;20181;-55
2021/01/23 12:36:28;;;;;;;5.93;5.23;;;4.00;99.90;;;;;;5117030;27;20215;-57
2021/01/23 12:38:54;;;;;;;5.83;5.03;;;4.20;99.90;;;;;;5119791;27;20180;-56
2021/01/23 12:41:19;;;;;;;4.83;4.40;;;4.20;99.90;;;;;;5118117;27;20168;-55
2021/01/23 12:43:45;;;;;;;8.00;5.90;;;4.30;99.90;;;;;;5122216;27;20204;-55
2021/01/23 12:46:11;;;;;;;6.47;5.30;;;4.30;99.90;;;;;;5120260;27;20181;-54
2021/01/23 12:48:36;;;;;;;6.50;5.10;;;4.20;99.90;;;;;;5118356;27;20185;-56
2021/01/23 12:51:02;;;;;;;7.20;5.63;;;4.50;99.90;;;;;;5121776;27;20627;-55
2021/01/23 12:53:28;;;;;;;6.87;5.30;;;4.50;99.90;;;;;;5119857;27;20181;-55
2021/01/23 12:55:53;;;;;;;7.13;5.33;;;4.40;99.90;;;;;;5123775;27;20462;-55
2021/01/23 12:58:21;;;;;;;8.30;6.20;;;4.50;99.90;;;;;;5124834;27;20191;-54
2021/01/23 13:00:47;;;;;;;6.90;5.40;;;4.50;99.90;;;;;;5130640;27;20182;-56
2021/01/23 13:03:13;;;;;;;5.00;4.50;;;4.40;99.90;;;;;;5122096;27;20434;-55
2021/01/23 13:05:38;;;;;;;7.20;5.13;;;4.50;99.90;;;;;;5122684;27;20205;-54